KLIT

Bill and Hillary Clinton National / Adams Field Airport

Little Rock, Arkansas, USA
KLIT 202333Z 2100/2124 08008KT P6SM SCT250 FM211400 11008KT P6SM OVC250 FM211600 11009G15KT P6SM OVC250 FM211900 13010G20KT P6SM VCSH SCT050 OVC250 FM212300 13010G20KT P6SM VCTS SCT050CB BKN100 OVC250
Issued Valid From Valid To
Apr-20 @ 23:33 UTC
(4 hours ago)
Apr-21 @ 00:00 UTC
(4 hours ago)
Apr-22 @ 00:00 UTC
(in 20 hours)
Apr-21 @ 00:00 to Apr-21 @ 14:00
KLIT 202333Z 2100/2124 08008KT P6SM SCT250
Wind Visibility Clouds
80° at 8 knots Greater than 6 miles
  • Scattered at 25,000' AGL
From Apr-21 @ 14:00 to Apr-21 @ 16:00
FM211400 11008KT P6SM OVC250
Wind Visibility Clouds
110° at 8 knots Greater than 6 miles
  • Overcast at 25,000' AGL
From Apr-21 @ 16:00 to Apr-21 @ 19:00
FM211600 11009G15KT P6SM OVC250
Wind Visibility Clouds
110° at 9 knots
 Gusting to 15 knots
Greater than 6 miles
  • Overcast at 25,000' AGL
From Apr-21 @ 19:00 to Apr-21 @ 23:00
FM211900 13010G20KT P6SM VCSH SCT050 OVC250
Wind Visibility Clouds
130° at 10 knots
 Gusting to 20 knots
Greater than 6 miles
  • Scattered at 5,000' AGL
  • Overcast at 25,000' AGL
From Apr-21 @ 23:00 to Apr-22 @ 00:00
FM212300 13010G20KT P6SM VCTS SCT050CB BKN100 OVC250
Wind Visibility Clouds Conditions
130° at 10 knots
 Gusting to 20 knots
Greater than 6 miles
  • Scattered at 5,000' AGL
  • Broken at 10,000' AGL
  • Overcast at 25,000' AGL
  • Area Thunderstorm
KLIT 202333Z 2100/2124 08008KT P6SM SCT250 FM211400 11008KT P6SM OVC250 FM211600 11009G15KT P6SM OVC250 FM211900 13010G20KT P6SM VCSH SCT050 OVC250 FM212300 13010G20KT P6SM VCTS SCT050CB BKN100 OVC250
Issued Apr-20 @ 23:33 UTC
(4 hours ago)
Valid From Apr-21 @ 00:00 UTC
(4 hours ago)
Valid To Apr-22 @ 00:00 UTC
(in 20 hours)
Apr-21 @ 00:00 - Apr-21 @ 14:00
Wind Visibility
80° at 8 knots Greater than 6 miles
Clouds
  • Scattered at 25,000' AGL
From Apr-21 @ 14:00 - Apr-21 @ 16:00
Wind Visibility
110° at 8 knots Greater than 6 miles
Clouds
  • Overcast at 25,000' AGL
From Apr-21 @ 16:00 - Apr-21 @ 19:00
Wind Visibility
110° at 9 knots
 Gusting to 15 knots
Greater than 6 miles
Clouds
  • Overcast at 25,000' AGL
From Apr-21 @ 19:00 - Apr-21 @ 23:00
Wind Visibility
130° at 10 knots
 Gusting to 20 knots
Greater than 6 miles
Clouds
  • Scattered at 5,000' AGL
  • Overcast at 25,000' AGL
From Apr-21 @ 23:00 - Apr-22 @ 00:00
Wind Visibility
130° at 10 knots
 Gusting to 20 knots
Greater than 6 miles
Clouds
  • Scattered at 5,000' AGL
  • Broken at 10,000' AGL
  • Overcast at 25,000' AGL
Conditions
  • Area Thunderstorm